Chazy, NY (12921)

11:47 PM EDT on October 24, 2014 (GMT -0400)
Hidden View Farms | Change Station
CLOSE
Current Station
Personal Weather Station
Location: Champlain, NY
Elevation: 194 ft
Nearby Weather Stations

Elev 194 ft 44.99 °N, 73.49 °W | Updated 6 minutes ago

Partly Cloudy
Partly Cloudy
39.4 °F
Feels Like 39 °F
N
0.0
Wind Variable Wind from South
Gusts 2.0 mph

Today
High -- | Low -- °F
--% Chance of Precip.
Yesterday
High -- | Low -- °F
Precip. -- in
7:21 AM 5:54 PM
New Moon, 2% visible
Pressure 29.82 in
Visibility 8.0 miles
Clouds Clear
Windchill 39 °F
Dew Point 38 °F
Humidity 94%
Rainfall 0.05 in
Snow Depth Not available.
UV 0 out of 12
Pollen .10 out of 12
Air Quality Not available.
Flu Activity Sporadic
METAR KPBG 250253Z AUTO 00000KT 8SM CLR 06/05 A2981 RMK AO2 SLP096 T00560050 58010

More Conditions Fewer Conditions

Pressure 29.82 in
Visibility 8.0 miles
Clouds Clear
Windchill 39 °F
Dew Point 38 °F
Humidity 94%
Rainfall 0.05 in
Snow Depth Not available.
UV 0 out of 12
Pollen .10 out of 12
Air Quality Not available.
Flu Activity Sporadic
METAR KPBG 250253Z AUTO 00000KT 8SM CLR 06/05 A2981 RMK AO2 SLP096 T00560050 58010

More Conditions Fewer Conditions

10-Day Weather Forecast

Almanac

Astronomy

Oct. 24, 2014 Rise Set
Actual Time 7:21 AM EDT 5:54 PM EDT
Civil Twilight 6:51 AM EDT 6:24 PM EDT
Nautical Twilight 6:16 AM EDT 6:58 PM EDT
Astronomical Twilight 5:43 AM EDT 7:32 PM EDT
Moon 7:58 AM EDT (10/24) 6:30 PM EDT (10/24)
Length of Visible Light 11h 32m
Length of Day
10h 32m
Tomorrow will be 2m 55s shorter.
New Moon, 2% of the Moon is Illuminated
Today
New Moon
Oct 30
First Quarter
Nov 6
Full
Nov 14
Last Quarter
Nov 22
New

Today's Extremes

State Highs State Lows

Community

WunderPhotos

Upload Photos

1,764,772 photos uploaded!

Nearby

Air Quality

  Air Quality AQ Index Pollutant
Friday Good
PM2.5
Saturday Good
PM2.5
Sunday Good
PM2.5
Monday Good
PM2.5

Snow Depth

Station Depth Elevation
No new snow has been reported.

Earthquake Activity

City Distance Mag. Time & Date
No recent earthquake activity has been reported nearby.
Minimum magnitude displayed is 2.5.

Coastal Water Temperatures

Place Temperature
No Stations Reporting

Nearby Weather Stations